sensor_id;sensor_type;location;lat;lon;timestamp;pressure;altitude;pressure_sealevel;temperature;humidity
23953;BME280;12163;49.316;6.092;2023-09-19T00:00:17;98987.44;;;18.12;78.02
23953;BME280;12163;49.316;6.092;2023-09-19T00:02:51;98990.75;;;18.05;77.91
23953;BME280;12163;49.316;6.092;2023-09-19T00:05:18;98995.69;;;18.00;77.89
23953;BME280;12163;49.316;6.092;2023-09-19T00:07:45;98999.44;;;17.95;77.76
23953;BME280;12163;49.316;6.092;2023-09-19T00:10:12;99000.91;;;17.93;77.59
23953;BME280;12163;49.316;6.092;2023-09-19T00:12:43;99010.50;;;17.87;77.67
23953;BME280;12163;49.316;6.092;2023-09-19T00:15:10;99024.41;;;17.82;77.43
23953;BME280;12163;49.316;6.092;2023-09-19T00:17:38;99024.28;;;17.78;77.57
23953;BME280;12163;49.316;6.092;2023-09-19T00:20:07;99020.41;;;17.79;77.05
23953;BME280;12163;49.316;6.092;2023-09-19T00:22:40;99018.25;;;17.73;77.05
23953;BME280;12163;49.316;6.092;2023-09-19T00:25:08;99021.69;;;17.70;77.66
23953;BME280;12163;49.316;6.092;2023-09-19T00:27:38;99025.47;;;17.65;77.65
23953;BME280;12163;49.316;6.092;2023-09-19T00:30:09;99022.16;;;17.60;78.36
23953;BME280;12163;49.316;6.092;2023-09-19T00:32:51;99026.34;;;17.57;78.20
23953;BME280;12163;49.316;6.092;2023-09-19T00:35:21;99031.59;;;17.50;78.09
23953;BME280;12163;49.316;6.092;2023-09-19T00:37:52;99035.34;;;17.46;78.32
23953;BME280;12163;49.316;6.092;2023-09-19T00:40:19;99022.84;;;17.45;79.06
23953;BME280;12163;49.316;6.092;2023-09-19T00:42:48;99035.25;;;17.42;79.11
23953;BME280;12163;49.316;6.092;2023-09-19T00:45:16;99046.03;;;17.39;79.19
23953;BME280;12163;49.316;6.092;2023-09-19T00:47:45;99045.25;;;17.38;79.19
23953;BME280;12163;49.316;6.092;2023-09-19T00:50:14;99040.34;;;17.32;78.68
23953;BME280;12163;49.316;6.092;2023-09-19T00:52:44;99043.72;;;17.29;79.36
23953;BME280;12163;49.316;6.092;2023-09-19T00:55:11;99035.31;;;17.22;79.22
23953;BME280;12163;49.316;6.092;2023-09-19T00:57:40;99046.47;;;17.17;79.35
23953;BME280;12163;49.316;6.092;2023-09-19T01:00:08;99055.31;;;17.14;79.25
23953;BME280;12163;49.316;6.092;2023-09-19T01:02:38;99039.16;;;17.09;78.89
23953;BME280;12163;49.316;6.092;2023-09-19T01:05:05;99052.03;;;17.08;79.51
23953;BME280;12163;49.316;6.092;2023-09-19T01:07:32;99054.75;;;17.08;79.49
23953;BME280;12163;49.316;6.092;2023-09-19T01:10:02;99051.22;;;17.08;78.84
23953;BME280;12163;49.316;6.092;2023-09-19T01:23:12;99080.28;;;16.92;78.83
23953;BME280;12163;49.316;6.092;2023-09-19T01:31:21;99078.69;;;16.91;78.94
23953;BME280;12163;49.316;6.092;2023-09-19T01:34:00;99076.16;;;16.86;79.36
23953;BME280;12163;49.316;6.092;2023-09-19T01:36:29;99076.28;;;16.90;78.81
23953;BME280;12163;49.316;6.092;2023-09-19T01:38:57;99072.38;;;17.11;78.54
23953;BME280;12163;49.316;6.092;2023-09-19T01:41:38;99072.66;;;16.97;78.73
23953;BME280;12163;49.316;6.092;2023-09-19T01:44:16;99082.66;;;16.93;78.77
23953;BME280;12163;49.316;6.092;2023-09-19T01:46:44;99071.97;;;16.89;78.97
23953;BME280;12163;49.316;6.092;2023-09-19T01:49:50;99069.78;;;16.82;78.29
23953;BME280;12163;49.316;6.092;2023-09-19T01:52:25;99073.44;;;16.86;78.59
23953;BME280;12163;49.316;6.092;2023-09-19T01:54:59;99076.84;;;16.83;79.57
23953;BME280;12163;49.316;6.092;2023-09-19T01:58:04;99077.50;;;16.80;79.71
23953;BME280;12163;49.316;6.092;2023-09-19T02:00:35;99079.00;;;16.78;79.63
23953;BME280;12163;49.316;6.092;2023-09-19T02:03:03;99078.19;;;16.77;79.67
23953;BME280;12163;49.316;6.092;2023-09-19T02:05:30;99085.00;;;16.71;80.82
23953;BME280;12163;49.316;6.092;2023-09-19T02:07:57;99080.13;;;16.77;79.90
23953;BME280;12163;49.316;6.092;2023-09-19T02:10:25;99073.66;;;16.81;80.61
23953;BME280;12163;49.316;6.092;2023-09-19T02:12:51;99075.25;;;16.82;81.23
23953;BME280;12163;49.316;6.092;2023-09-19T02:15:18;99068.19;;;16.81;81.40
23953;BME280;12163;49.316;6.092;2023-09-19T02:17:45;99076.06;;;16.83;81.35
23953;BME280;12163;49.316;6.092;2023-09-19T02:20:13;99074.47;;;16.82;81.51
23953;BME280;12163;49.316;6.092;2023-09-19T02:22:41;99073.66;;;16.81;82.19
23953;BME280;12163;49.316;6.092;2023-09-19T02:25:08;99077.88;;;16.79;82.23
23953;BME280;12163;49.316;6.092;2023-09-19T02:27:35;99091.81;;;16.77;81.90
23953;BME280;12163;49.316;6.092;2023-09-19T02:30:03;99083.63;;;16.77;82.14
23953;BME280;12163;49.316;6.092;2023-09-19T02:32:30;99066.16;;;16.78;81.94
23953;BME280;12163;49.316;6.092;2023-09-19T02:35:03;99076.72;;;16.80;82.18
23953;BME280;12163;49.316;6.092;2023-09-19T02:37:31;99091.19;;;17.04;81.92
23953;BME280;12163;49.316;6.092;2023-09-19T02:39:59;99101.88;;;16.97;81.81
23953;BME280;12163;49.316;6.092;2023-09-19T02:42:25;99100.72;;;16.98;81.38
23953;BME280;12163;49.316;6.092;2023-09-19T02:44:52;99114.34;;;16.98;81.52
23953;BME280;12163;49.316;6.092;2023-09-19T02:47:19;99120.47;;;16.95;81.56
23953;BME280;12163;49.316;6.092;2023-09-19T02:49:46;99106.84;;;16.95;80.89
23953;BME280;12163;49.316;6.092;2023-09-19T02:52:12;99104.34;;;16.90;80.36
23953;BME280;12163;49.316;6.092;2023-09-19T02:54:41;99109.59;;;17.07;79.78
23953;BME280;12163;49.316;6.092;2023-09-19T02:57:08;99116.50;;;16.92;79.70
23953;BME280;12163;49.316;6.092;2023-09-19T02:59:36;99109.84;;;17.14;78.84
23953;BME280;12163;49.316;6.092;2023-09-19T03:02:03;99121.84;;;17.01;79.29
23953;BME280;12163;49.316;6.092;2023-09-19T03:04:31;99123.66;;;16.97;79.03
23953;BME280;12163;49.316;6.092;2023-09-19T03:06:59;99130.00;;;16.89;79.30
23953;BME280;12163;49.316;6.092;2023-09-19T03:09:27;99124.75;;;16.84;78.86
23953;BME280;12163;49.316;6.092;2023-09-19T03:11:54;99132.94;;;16.84;78.62
23953;BME280;12163;49.316;6.092;2023-09-19T03:14:21;99132.00;;;16.80;79.10
23953;BME280;12163;49.316;6.092;2023-09-19T03:16:47;99136.53;;;16.76;79.15
23953;BME280;12163;49.316;6.092;2023-09-19T03:19:14;99143.13;;;16.75;79.17
23953;BME280;12163;49.316;6.092;2023-09-19T03:21:41;99151.31;;;16.75;79.23
23953;BME280;12163;49.316;6.092;2023-09-19T03:24:08;99148.13;;;16.73;78.60
23953;BME280;12163;49.316;6.092;2023-09-19T03:26:35;99151.97;;;16.72;78.96
23953;BME280;12163;49.316;6.092;2023-09-19T03:29:05;99151.97;;;16.72;78.22
23953;BME280;12163;49.316;6.092;2023-09-19T03:31:33;99156.28;;;16.73;78.40
23953;BME280;12163;49.316;6.092;2023-09-19T03:34:03;99151.97;;;16.72;78.52
23953;BME280;12163;49.316;6.092;2023-09-19T03:36:30;99155.38;;;16.69;78.06
23953;BME280;12163;49.316;6.092;2023-09-19T03:38:57;99152.03;;;16.64;77.53
23953;BME280;12163;49.316;6.092;2023-09-19T03:41:23;99142.94;;;16.60;78.12
23953;BME280;12163;49.316;6.092;2023-09-19T03:43:50;99137.38;;;16.56;78.20
23953;BME280;12163;49.316;6.092;2023-09-19T03:46:17;99145.06;;;16.54;78.27
23953;BME280;12163;49.316;6.092;2023-09-19T03:48:44;99144.94;;;16.51;78.13
23953;BME280;12163;49.316;6.092;2023-09-19T03:51:10;99146.41;;;16.48;78.40
23953;BME280;12163;49.316;6.092;2023-09-19T03:53:37;99139.50;;;16.51;77.99
23953;BME280;12163;49.316;6.092;2023-09-19T03:56:04;99145.75;;;16.51;77.82
23953;BME280;12163;49.316;6.092;2023-09-19T03:58:31;99146.06;;;16.50;77.85
23953;BME280;12163;49.316;6.092;2023-09-19T04:00:58;99147.53;;;16.47;78.16
23953;BME280;12163;49.316;6.092;2023-09-19T04:03:24;99143.91;;;16.43;78.55
23953;BME280;12163;49.316;6.092;2023-09-19T04:06:01;99142.78;;;16.44;78.79
23953;BME280;12163;49.316;6.092;2023-09-19T04:08:28;99141.50;;;16.42;79.04
23953;BME280;12163;49.316;6.092;2023-09-19T04:10:55;99145.00;;;16.42;78.37
23953;BME280;12163;49.316;6.092;2023-09-19T04:13:23;99147.78;;;16.34;78.83
23953;BME280;12163;49.316;6.092;2023-09-19T04:15:50;99151.97;;;16.31;78.66
23953;BME280;12163;49.316;6.092;2023-09-19T04:18:16;99146.50;;;16.31;78.90
23953;BME280;12163;49.316;6.092;2023-09-19T04:20:49;99154.38;;;16.33;78.72
23953;BME280;12163;49.316;6.092;2023-09-19T04:23:16;99151.69;;;16.24;78.67
23953;BME280;12163;49.316;6.092;2023-09-19T04:25:43;99157.81;;;16.21;78.46
23953;BME280;12163;49.316;6.092;2023-09-19T04:28:09;99157.69;;;16.38;77.80
23953;BME280;12163;49.316;6.092;2023-09-19T04:30:39;99171.22;;;16.26;78.25
23953;BME280;12163;49.316;6.092;2023-09-19T04:33:09;99168.88;;;16.16;78.38
23953;BME280;12163;49.316;6.092;2023-09-19T04:35:35;99179.19;;;16.11;78.60
23953;BME280;12163;49.316;6.092;2023-09-19T04:38:02;99187.66;;;16.09;78.68
23953;BME280;12163;49.316;6.092;2023-09-19T04:40:29;99190.06;;;16.11;79.05
23953;BME280;12163;49.316;6.092;2023-09-19T04:42:56;99201.06;;;16.14;78.76
23953;BME280;12163;49.316;6.092;2023-09-19T04:45:24;99195.63;;;16.14;78.58
23953;BME280;12163;49.316;6.092;2023-09-19T04:47:50;99204.50;;;16.32;77.80
23953;BME280;12163;49.316;6.092;2023-09-19T04:50:17;99201.56;;;16.45;76.92
23953;BME280;12163;49.316;6.092;2023-09-19T04:52:45;99196.41;;;16.85;75.87
23953;BME280;12163;49.316;6.092;2023-09-19T04:55:12;99201.53;;;17.39;80.71
23953;BME280;12163;49.316;6.092;2023-09-19T04:57:48;99196.34;;;17.82;75.63
23953;BME280;12163;49.316;6.092;2023-09-19T05:00:19;99206.13;;;18.07;71.85
23953;BME280;12163;49.316;6.092;2023-09-19T05:02:56;99204.31;;;18.23;72.72
23953;BME280;12163;49.316;6.092;2023-09-19T05:05:24;99199.22;;;18.73;67.72
23953;BME280;12163;49.316;6.092;2023-09-19T05:07:52;99201.06;;;18.57;68.07
23953;BME280;12163;49.316;6.092;2023-09-19T05:10:22;99201.78;;;18.54;69.22
23953;BME280;12163;49.316;6.092;2023-09-19T05:12:52;99210.78;;;18.42;68.29
23953;BME280;12163;49.316;6.092;2023-09-19T05:15:19;99209.88;;;18.14;67.48
23953;BME280;12163;49.316;6.092;2023-09-19T05:17:50;99221.38;;;18.08;70.48
23953;BME280;12163;49.316;6.092;2023-09-19T05:20:22;99217.72;;;17.92;70.93
23953;BME280;12163;49.316;6.092;2023-09-19T05:23:04;99223.88;;;17.89;71.11
23953;BME280;12163;49.316;6.092;2023-09-19T05:25:39;99223.63;;;18.18;68.57
23953;BME280;12163;49.316;6.092;2023-09-19T05:28:07;99209.78;;;18.35;69.11
23953;BME280;12163;49.316;6.092;2023-09-19T05:30:35;99212.53;;;18.74;67.77
23953;BME280;12163;49.316;6.092;2023-09-19T05:33:03;99219.66;;;18.90;67.61
23953;BME280;12163;49.316;6.092;2023-09-19T05:35:31;99208.50;;;19.23;65.73
23953;BME280;12163;49.316;6.092;2023-09-19T05:37:58;99216.22;;;19.48;64.70
23953;BME280;12163;49.316;6.092;2023-09-19T05:40:25;99210.56;;;19.41;64.12
23953;BME280;12163;49.316;6.092;2023-09-19T05:42:52;99216.59;;;19.47;63.59
23953;BME280;12163;49.316;6.092;2023-09-19T05:45:18;99211.97;;;19.35;63.76
23953;BME280;12163;49.316;6.092;2023-09-19T05:47:49;99217.03;;;19.49;62.64
23953;BME280;12163;49.316;6.092;2023-09-19T05:50:17;99215.44;;;19.48;62.52
23953;BME280;12163;49.316;6.092;2023-09-19T05:52:51;99215.50;;;19.51;62.36
23953;BME280;12163;49.316;6.092;2023-09-19T05:55:19;99230.34;;;19.50;63.38
23953;BME280;12163;49.316;6.092;2023-09-19T05:57:53;99228.03;;;19.52;61.84
23953;BME280;12163;49.316;6.092;2023-09-19T06:00:21;99226.22;;;19.56;62.26
23953;BME280;12163;49.316;6.092;2023-09-19T06:02:55;99239.47;;;19.54;60.46
23953;BME280;12163;49.316;6.092;2023-09-19T06:05:27;99234.75;;;19.39;62.38
23953;BME280;12163;49.316;6.092;2023-09-19T06:07:54;99241.63;;;19.33;61.04
23953;BME280;12163;49.316;6.092;2023-09-19T06:10:21;99250.97;;;19.32;61.38
23953;BME280;12163;49.316;6.092;2023-09-19T06:12:49;99250.97;;;19.32;61.57
23953;BME280;12163;49.316;6.092;2023-09-19T06:15:16;99253.72;;;19.32;61.27
23953;BME280;12163;49.316;6.092;2023-09-19T06:17:53;99255.91;;;19.15;62.49
23953;BME280;12163;49.316;6.092;2023-09-19T06:20:25;99263.25;;;19.38;62.42
23953;BME280;12163;49.316;6.092;2023-09-19T06:22:53;99254.03;;;19.58;61.08
23953;BME280;12163;49.316;6.092;2023-09-19T06:25:20;99258.97;;;19.68;60.75
23953;BME280;12163;49.316;6.092;2023-09-19T06:27:50;99254.75;;;19.55;60.73
23953;BME280;12163;49.316;6.092;2023-09-19T06:30:24;99256.81;;;19.46;61.04
23953;BME280;12163;49.316;6.092;2023-09-19T06:32:59;99252.06;;;19.16;60.23
23953;BME280;12163;49.316;6.092;2023-09-19T06:35:27;99259.72;;;19.10;62.79
23953;BME280;12163;49.316;6.092;2023-09-19T06:37:56;99270.91;;;19.33;62.34
23953;BME280;12163;49.316;6.092;2023-09-19T06:40:25;99265.97;;;19.66;60.24
23953;BME280;12163;49.316;6.092;2023-09-19T06:42:52;99274.53;;;19.64;61.02
23953;BME280;12163;49.316;6.092;2023-09-19T06:45:19;99279.59;;;19.50;60.44
23953;BME280;12163;49.316;6.092;2023-09-19T06:47:50;99284.47;;;19.57;60.80
23953;BME280;12163;49.316;6.092;2023-09-19T06:50:18;99289.34;;;19.63;59.82
23953;BME280;12163;49.316;6.092;2023-09-19T06:52:46;99287.63;;;19.16;60.64
23953;BME280;12163;49.316;6.092;2023-09-19T06:55:17;99288.44;;;19.04;61.94
23953;BME280;12163;49.316;6.092;2023-09-19T06:57:47;99302.53;;;19.06;61.72
23953;BME280;12163;49.316;6.092;2023-09-19T07:00:15;99297.03;;;19.30;62.35
23953;BME280;12163;49.316;6.092;2023-09-19T07:02:42;99295.22;;;19.34;62.38
23953;BME280;12163;49.316;6.092;2023-09-19T07:05:09;99297.56;;;19.63;60.56
23953;BME280;12163;49.316;6.092;2023-09-19T07:07:36;99306.44;;;19.45;59.55
23953;BME280;12163;49.316;6.092;2023-09-19T07:10:03;99303.06;;;19.36;62.84
23953;BME280;12163;49.316;6.092;2023-09-19T07:12:34;99302.59;;;19.61;60.43
23953;BME280;12163;49.316;6.092;2023-09-19T07:15:02;99302.28;;;19.78;60.40
23953;BME280;12163;49.316;6.092;2023-09-19T07:17:28;99300.59;;;19.74;58.28
23953;BME280;12163;49.316;6.092;2023-09-19T07:19:56;99317.63;;;19.67;60.43
23953;BME280;12163;49.316;6.092;2023-09-19T07:22:26;99304.06;;;19.86;60.22
23953;BME280;12163;49.316;6.092;2023-09-19T07:24:53;99307.75;;;19.78;57.80
23953;BME280;12163;49.316;6.092;2023-09-19T07:27:19;99312.53;;;19.26;59.53
23953;BME280;12163;49.316;6.092;2023-09-19T07:29:46;99320.28;;;18.85;60.24
23953;BME280;12163;49.316;6.092;2023-09-19T07:32:16;99325.38;;;18.86;62.52
23953;BME280;12163;49.316;6.092;2023-09-19T07:34:43;99312.53;;;19.26;61.78
23953;BME280;12163;49.316;6.092;2023-09-19T07:37:11;99326.88;;;19.63;61.62
23953;BME280;12163;49.316;6.092;2023-09-19T07:39:39;99320.53;;;20.02;57.64
23953;BME280;12163;49.316;6.092;2023-09-19T07:42:07;99320.25;;;20.07;56.96
23953;BME280;12163;49.316;6.092;2023-09-19T07:44:37;99320.53;;;19.74;57.75
23953;BME280;12163;49.316;6.092;2023-09-19T07:47:04;99323.50;;;19.81;60.07
23953;BME280;12163;49.316;6.092;2023-09-19T07:49:31;99314.88;;;20.10;57.58
23953;BME280;12163;49.316;6.092;2023-09-19T07:51:58;99305.94;;;20.29;56.88
23953;BME280;12163;49.316;6.092;2023-09-19T07:54:25;99320.19;;;20.03;56.77
23953;BME280;12163;49.316;6.092;2023-09-19T07:56:53;99318.31;;;19.64;58.48
23953;BME280;12163;49.316;6.092;2023-09-19T07:59:20;99309.81;;;19.26;58.00
23953;BME280;12163;49.316;6.092;2023-09-19T08:01:47;99318.25;;;19.33;59.92
23953;BME280;12163;49.316;6.092;2023-09-19T08:04:14;99314.03;;;19.51;57.29
23953;BME280;12163;49.316;6.092;2023-09-19T08:06:41;99320.72;;;19.66;57.48
23953;BME280;12163;49.316;6.092;2023-09-19T08:09:08;99322.25;;;19.79;58.02
23953;BME280;12163;49.316;6.092;2023-09-19T08:11:37;99328.72;;;19.59;55.00
23953;BME280;12163;49.316;6.092;2023-09-19T08:14:03;99322.72;;;19.26;57.44
23953;BME280;12163;49.316;6.092;2023-09-19T08:16:32;99326.22;;;19.26;57.17
23953;BME280;12163;49.316;6.092;2023-09-19T08:18:59;99325.31;;;19.34;56.71
23953;BME280;12163;49.316;6.092;2023-09-19T08:21:25;99326.28;;;19.42;57.78
23953;BME280;12163;49.316;6.092;2023-09-19T08:23:55;99327.50;;;19.56;56.71
23953;BME280;12163;49.316;6.092;2023-09-19T08:26:23;99331.69;;;19.66;54.57
23953;BME280;12163;49.316;6.092;2023-09-19T08:28:50;99341.22;;;19.44;56.16
23953;BME280;12163;49.316;6.092;2023-09-19T08:31:18;99344.94;;;19.79;55.50
23953;BME280;12163;49.316;6.092;2023-09-19T08:33:44;99341.13;;;19.68;54.81
23953;BME280;12163;49.316;6.092;2023-09-19T08:36:15;99341.63;;;19.58;55.78
23953;BME280;12163;49.316;6.092;2023-09-19T08:38:42;99337.53;;;19.52;55.92
23953;BME280;12163;49.316;6.092;2023-09-19T08:41:08;99346.84;;;19.63;55.45
23953;BME280;12163;49.316;6.092;2023-09-19T08:43:36;99335.34;;;19.85;54.24
23953;BME280;12163;49.316;6.092;2023-09-19T08:46:10;99349.78;;;19.70;53.92
23953;BME280;12163;49.316;6.092;2023-09-19T08:48:52;99342.84;;;19.88;55.84
23953;BME280;12163;49.316;6.092;2023-09-19T08:51:26;99340.34;;;20.26;53.52
23953;BME280;12163;49.316;6.092;2023-09-19T08:54:08;99340.69;;;20.55;54.06
23953;BME280;12163;49.316;6.092;2023-09-19T08:56:41;99339.63;;;20.91;51.78
23953;BME280;12163;49.316;6.092;2023-09-19T08:59:09;99338.91;;;20.94;51.36
23953;BME280;12163;49.316;6.092;2023-09-19T09:01:40;99339.03;;;21.01;51.58
23953;BME280;12163;49.316;6.092;2023-09-19T09:04:09;99340.16;;;20.65;50.74
23953;BME280;12163;49.316;6.092;2023-09-19T09:06:41;99338.56;;;20.18;51.40
23953;BME280;12163;49.316;6.092;2023-09-19T09:09:10;99342.09;;;20.03;52.54
23953;BME280;12163;49.316;6.092;2023-09-19T09:11:38;99340.16;;;20.19;51.95
23953;BME280;12163;49.316;6.092;2023-09-19T09:14:06;99341.22;;;20.46;52.17
23953;BME280;12163;49.316;6.092;2023-09-19T09:16:34;99352.72;;;20.66;50.96
23953;BME280;12163;49.316;6.092;2023-09-19T09:19:01;99340.44;;;20.60;50.15
23953;BME280;12163;49.316;6.092;2023-09-19T09:21:28;99357.72;;;20.80;50.35
23953;BME280;12163;49.316;6.092;2023-09-19T09:23:54;99353.59;;;20.86;48.71
23953;BME280;12163;49.316;6.092;2023-09-19T09:29:06;99351.75;;;20.90;47.54
23953;BME280;12163;49.316;6.092;2023-09-19T09:31:33;99351.28;;;20.57;48.88
23953;BME280;12163;49.316;6.092;2023-09-19T09:34:00;99352.56;;;20.44;51.11
23953;BME280;12163;49.316;6.092;2023-09-19T09:36:38;99340.69;;;20.71;49.87
23953;BME280;12163;49.316;6.092;2023-09-19T09:39:05;99340.25;;;20.84;49.17
23953;BME280;12163;49.316;6.092;2023-09-19T09:41:52;99343.97;;;21.11;47.64
23953;BME280;12163;49.316;6.092;2023-09-19T09:44:18;99345.25;;;20.98;47.32
23953;BME280;12163;49.316;6.092;2023-09-19T09:46:47;99347.47;;;20.92;47.53
23953;BME280;12163;49.316;6.092;2023-09-19T09:49:24;99351.81;;;20.78;48.22
23953;BME280;12163;49.316;6.092;2023-09-19T09:52:02;99350.34;;;20.65;47.84
23953;BME280;12163;49.316;6.092;2023-09-19T09:55:00;99346.88;;;20.68;47.43
23953;BME280;12163;49.316;6.092;2023-09-19T09:57:34;99343.56;;;20.93;47.64
23953;BME280;12163;49.316;6.092;2023-09-19T10:00:02;99341.09;;;21.23;49.29
23953;BME280;12163;49.316;6.092;2023-09-19T10:02:38;99347.47;;;21.46;46.53
23953;BME280;12163;49.316;6.092;2023-09-19T10:05:21;99351.13;;;21.15;46.02
23953;BME280;12163;49.316;6.092;2023-09-19T10:07:55;99342.69;;;20.89;48.48
23953;BME280;12163;49.316;6.092;2023-09-19T10:10:36;99347.72;;;21.03;47.25
23953;BME280;12163;49.316;6.092;2023-09-19T10:13:12;99347.31;;;21.20;47.74
23953;BME280;12163;49.316;6.092;2023-09-19T10:15:42;99345.84;;;21.26;45.70
23953;BME280;12163;49.316;6.092;2023-09-19T10:18:13;99343.09;;;21.07;46.09
23953;BME280;12163;49.316;6.092;2023-09-19T10:20:45;99339.84;;;21.01;48.00
23953;BME280;12163;49.316;6.092;2023-09-19T10:23:12;99334.31;;;21.17;46.19
23953;BME280;12163;49.316;6.092;2023-09-19T10:25:41;99331.94;;;21.34;47.02
23953;BME280;12163;49.316;6.092;2023-09-19T10:28:11;99330.84;;;21.39;46.75
23953;BME280;12163;49.316;6.092;2023-09-19T10:30:44;99332.88;;;21.42;46.64
23953;BME280;12163;49.316;6.092;2023-09-19T10:33:13;99327.16;;;21.50;46.87
23953;BME280;12163;49.316;6.092;2023-09-19T10:35:46;99313.09;;;21.33;47.40
23953;BME280;12163;49.316;6.092;2023-09-19T10:38:33;99326.94;;;21.21;47.80
23953;BME280;12163;49.316;6.092;2023-09-19T10:41:02;99322.91;;;21.15;47.73
23953;BME280;12163;49.316;6.092;2023-09-19T10:43:31;99321.59;;;21.28;48.01
23953;BME280;12163;49.316;6.092;2023-09-19T10:46:07;99306.78;;;21.51;45.58
23953;BME280;12163;49.316;6.092;2023-09-19T10:48:34;99317.69;;;21.86;44.90
23953;BME280;12163;49.316;6.092;2023-09-19T10:51:04;99308.16;;;22.02;45.77
23953;BME280;12163;49.316;6.092;2023-09-19T10:53:43;99304.75;;;22.53;44.78
23953;BME280;12163;49.316;6.092;2023-09-19T10:56:17;99307.31;;;22.95;43.97
23953;BME280;12163;49.316;6.092;2023-09-19T10:58:45;99306.03;;;23.11;41.94
23953;BME280;12163;49.316;6.092;2023-09-19T11:01:12;99280.88;;;23.13;42.94
23953;BME280;12163;49.316;6.092;2023-09-19T11:03:42;99294.09;;;23.04;42.09
23953;BME280;12163;49.316;6.092;2023-09-19T11:06:14;99285.31;;;22.95;42.19
23953;BME280;12163;49.316;6.092;2023-09-19T11:09:02;99302.22;;;22.93;42.57
23953;BME280;12163;49.316;6.092;2023-09-19T11:11:43;99289.19;;;22.90;42.67
23953;BME280;12163;49.316;6.092;2023-09-19T11:30:50;99275.38;;;23.13;42.94
23953;BME280;12163;49.316;6.092;2023-09-19T11:36:13;99267.72;;;22.73;43.73
23953;BME280;12163;49.316;6.092;2023-09-19T11:43:53;99244.78;;;23.21;43.96
23953;BME280;12163;49.316;6.092;2023-09-19T11:46:23;99242.50;;;23.27;43.42
23953;BME280;12163;49.316;6.092;2023-09-19T11:48:51;99251.38;;;23.46;43.14
23953;BME280;12163;49.316;6.092;2023-09-19T11:51:20;99251.78;;;23.48;42.41
23953;BME280;12163;49.316;6.092;2023-09-19T11:53:57;99252.84;;;23.37;41.89
23953;BME280;12163;49.316;6.092;2023-09-19T11:56:27;99262.81;;;23.15;43.15
23953;BME280;12163;49.316;6.092;2023-09-19T11:58:55;99255.50;;;23.00;43.31
23953;BME280;12163;49.316;6.092;2023-09-19T12:01:30;99242.59;;;23.04;44.36
23953;BME280;12163;49.316;6.092;2023-09-19T12:04:00;99233.72;;;23.14;43.13
23953;BME280;12163;49.316;6.092;2023-09-19T12:06:29;99246.78;;;23.21;43.02
23953;BME280;12163;49.316;6.092;2023-09-19T12:08:56;99241.69;;;23.23;43.12
23953;BME280;12163;49.316;6.092;2023-09-19T12:11:30;99236.13;;;23.19;43.12
23953;BME280;12163;49.316;6.092;2023-09-19T12:14:01;99248.78;;;23.27;43.57
23953;BME280;12163;49.316;6.092;2023-09-19T12:16:28;99241.13;;;23.43;43.74
23953;BME280;12163;49.316;6.092;2023-09-19T12:19:17;99252.44;;;23.35;42.58
23953;BME280;12163;49.316;6.092;2023-09-19T12:21:58;99249.66;;;23.35;43.33
23953;BME280;12163;49.316;6.092;2023-09-19T12:24:27;99250.72;;;23.56;42.71
23953;BME280;12163;49.316;6.092;2023-09-19T12:27:00;99238.53;;;23.57;42.84
23953;BME280;12163;49.316;6.092;2023-09-19T12:29:27;99245.00;;;23.75;41.28
23953;BME280;12163;49.316;6.092;2023-09-19T12:31:57;99237.53;;;23.76;41.49
23953;BME280;12163;49.316;6.092;2023-09-19T12:34:28;99225.72;;;23.75;41.15
23953;BME280;12163;49.316;6.092;2023-09-19T12:37:14;99249.53;;;23.57;41.53
23953;BME280;12163;49.316;6.092;2023-09-19T12:39:50;99239.22;;;23.51;42.08
23953;BME280;12163;49.316;6.092;2023-09-19T12:42:20;99219.34;;;23.71;42.84
23953;BME280;12163;49.316;6.092;2023-09-19T12:44:51;99222.06;;;24.04;41.81
23953;BME280;12163;49.316;6.092;2023-09-19T12:47:22;99219.72;;;24.06;41.27
23953;BME280;12163;49.316;6.092;2023-09-19T12:50:08;99229.75;;;23.85;41.00
23953;BME280;12163;49.316;6.092;2023-09-19T12:52:45;99222.06;;;23.64;41.49
23953;BME280;12163;49.316;6.092;2023-09-19T13:08:29;99215.78;;;23.67;42.40
23953;BME280;12163;49.316;6.092;2023-09-19T13:19:43;99206.09;;;23.80;42.69
23953;BME280;12163;49.316;6.092;2023-09-19T13:25:15;99213.81;;;23.28;44.43
23953;BME280;12163;49.316;6.092;2023-09-19T13:27:47;99202.31;;;23.55;43.74
23953;BME280;12163;49.316;6.092;2023-09-19T13:30:20;99204.16;;;23.84;43.61
23953;BME280;12163;49.316;6.092;2023-09-19T13:32:47;99205.56;;;24.11;42.81
23953;BME280;12163;49.316;6.092;2023-09-19T13:35:15;99203.34;;;24.30;42.17
23953;BME280;12163;49.316;6.092;2023-09-19T13:37:42;99199.63;;;24.63;41.42
23953;BME280;12163;49.316;6.092;2023-09-19T13:40:14;99199.78;;;24.91;40.19
23953;BME280;12163;49.316;6.092;2023-09-19T13:42:41;99201.28;;;24.74;40.49
23953;BME280;12163;49.316;6.092;2023-09-19T13:45:08;99203.84;;;24.46;40.55
23953;BME280;12163;49.316;6.092;2023-09-19T13:47:39;99203.22;;;24.13;41.54
23953;BME280;12163;49.316;6.092;2023-09-19T13:50:07;99187.38;;;24.57;41.06
23953;BME280;12163;49.316;6.092;2023-09-19T13:52:35;99191.19;;;25.10;40.27
23953;BME280;12163;49.316;6.092;2023-09-19T13:55:02;99195.28;;;25.47;39.68
23953;BME280;12163;49.316;6.092;2023-09-19T13:57:29;99185.88;;;25.87;39.52
23953;BME280;12163;49.316;6.092;2023-09-19T13:59:56;99183.44;;;26.62;38.30
23953;BME280;12163;49.316;6.092;2023-09-19T14:02:23;99178.00;;;27.37;37.02
23953;BME280;12163;49.316;6.092;2023-09-19T14:04:53;99180.06;;;27.87;35.79
23953;BME280;12163;49.316;6.092;2023-09-19T14:07:20;99171.50;;;27.58;36.44
23953;BME280;12163;49.316;6.092;2023-09-19T14:09:47;99177.69;;;27.18;36.24
23953;BME280;12163;49.316;6.092;2023-09-19T14:12:14;99176.94;;;27.03;36.70
23953;BME280;12163;49.316;6.092;2023-09-19T14:14:41;99168.75;;;26.75;37.18
23953;BME280;12163;49.316;6.092;2023-09-19T14:17:08;99181.06;;;26.43;37.42
23953;BME280;12163;49.316;6.092;2023-09-19T14:19:35;99179.91;;;25.71;38.42
23953;BME280;12163;49.316;6.092;2023-09-19T14:22:04;99180.59;;;25.26;39.92